EVLA

Details ICAO EVLA (LPX)
Name LIEPAJA INTL
Region Latvia
Timezone Europe/Riga (UTC+3.0)
Plans Departing 8
Arriving 15
Stats Elevation 16 ft / 5 m (AMSL)
Location 56.517524° 21.097060°
Runways 1
Magnetic Variation 6.698° E
Sunrise 2018-05-21 02:10:58 UTC / 2018-05-21 05:10:58 Local
Sunset 2018-05-21 18:56:17 UTC / 2018-05-21 21:56:17 Local
Advertisement - Login to hide

Runways

ID Width Length Bearing (true) Bearing (mag) Surface Threshold Offset Overrun Length
07 131 ft / 40 m 6,548 ft / 1,996 m 70.20° 63.50° Asphalt 0 ft / 0 m 984 ft / 300 m
25 131 ft / 40 m 6,548 ft / 1,996 m 250.23° 243.53° Asphalt 0 ft / 0 m 197 ft / 60 m

Map

Weather


0- 5 10 15 20 25 30 35+ Temperature / ° C

Clouds and Precipitation
Forecast for 2018-05-21 18:00 UTC. Updated 2 hours ago

Ground ~20,000 ft ~40,000 ft Winds

METAR

EVLA 211820Z AUTO 06003KT 9999 NSC 17/08 Q1023

TAF

TAF EVLA 211705Z 2118/2218 35010KT CAVOK BECMG 2119/2121 09007KT TEMPO 2208/2218 SCT030CB PROB40 TEMPO 2212/2218 -TSRA

Frequencies

Tower 124.80 MHz METEO INFO
Approach 129.40 MHz APP/TWR
Warning: Do not use this data for real-world aviation or navigation. No guarantee of current accuracy is given.